sensor_id;sensor_type;location;lat;lon;timestamp;P1;durP1;ratioP1;P2;durP2;ratioP2
70365;SDS011;57787;48.216;12.396;2023-02-01T00:03:49;3.40;;;2.17;;
70365;SDS011;57787;48.216;12.396;2023-02-01T00:06:17;4.32;;;2.17;;
70365;SDS011;57787;48.216;12.396;2023-02-01T00:08:45;4.25;;;2.10;;
70365;SDS011;57787;48.216;12.396;2023-02-01T00:11:13;5.72;;;2.20;;
70365;SDS011;57787;48.216;12.396;2023-02-01T00:13:41;3.35;;;2.17;;
70365;SDS011;57787;48.216;12.396;2023-02-01T00:16:28;4.45;;;2.30;;
70365;SDS011;57787;48.216;12.396;2023-02-01T00:18:58;4.43;;;1.95;;
70365;SDS011;57787;48.216;12.396;2023-02-01T00:21:28;4.82;;;2.17;;
70365;SDS011;57787;48.216;12.396;2023-02-01T00:23:57;6.32;;;2.20;;
70365;SDS011;57787;48.216;12.396;2023-02-01T00:26:34;8.70;;;2.38;;
70365;SDS011;57787;48.216;12.396;2023-02-01T00:29:08;5.55;;;2.38;;
70365;SDS011;57787;48.216;12.396;2023-02-01T00:31:44;3.67;;;2.03;;
70365;SDS011;57787;48.216;12.396;2023-02-01T00:34:14;4.45;;;2.50;;
70365;SDS011;57787;48.216;12.396;2023-02-01T00:36:43;4.60;;;2.15;;
70365;SDS011;57787;48.216;12.396;2023-02-01T00:39:12;4.40;;;2.20;;
70365;SDS011;57787;48.216;12.396;2023-02-01T00:41:47;5.75;;;2.17;;
70365;SDS011;57787;48.216;12.396;2023-02-01T00:44:15;6.53;;;2.22;;
70365;SDS011;57787;48.216;12.396;2023-02-01T00:46:44;3.13;;;2.10;;
70365;SDS011;57787;48.216;12.396;2023-02-01T00:49:15;5.47;;;2.55;;
70365;SDS011;57787;48.216;12.396;2023-02-01T00:51:42;3.72;;;1.83;;
70365;SDS011;57787;48.216;12.396;2023-02-01T00:54:10;4.60;;;1.85;;
70365;SDS011;57787;48.216;12.396;2023-02-01T00:59:05;3.28;;;2.00;;
70365;SDS011;57787;48.216;12.396;2023-02-01T01:01:34;3.85;;;1.98;;
70365;SDS011;57787;48.216;12.396;2023-02-01T01:04:02;3.78;;;1.70;;
70365;SDS011;57787;48.216;12.396;2023-02-01T01:06:31;3.65;;;1.70;;
70365;SDS011;57787;48.216;12.396;2023-02-01T01:09:01;3.75;;;1.45;;
70365;SDS011;57787;48.216;12.396;2023-02-01T01:11:33;4.53;;;2.17;;
70365;SDS011;57787;48.216;12.396;2023-02-01T01:14:05;7.40;;;2.25;;
70365;SDS011;57787;48.216;12.396;2023-02-01T01:16:35;4.55;;;1.98;;
70365;SDS011;57787;48.216;12.396;2023-02-01T01:19:02;4.47;;;1.92;;
70365;SDS011;57787;48.216;12.396;2023-02-01T01:21:33;2.97;;;1.70;;
70365;SDS011;57787;48.216;12.396;2023-02-01T01:24:00;2.90;;;1.55;;
70365;SDS011;57787;48.216;12.396;2023-02-01T01:26:29;3.42;;;1.80;;
70365;SDS011;57787;48.216;12.396;2023-02-01T01:28:58;5.30;;;1.98;;
70365;SDS011;57787;48.216;12.396;2023-02-01T01:31:26;2.30;;;1.50;;
70365;SDS011;57787;48.216;12.396;2023-02-01T01:33:55;3.13;;;1.80;;
70365;SDS011;57787;48.216;12.396;2023-02-01T01:36:24;7.22;;;1.90;;
70365;SDS011;57787;48.216;12.396;2023-02-01T01:38:53;5.68;;;1.70;;
70365;SDS011;57787;48.216;12.396;2023-02-01T01:41:23;3.17;;;1.73;;
70365;SDS011;57787;48.216;12.396;2023-02-01T01:44:05;9.90;;;3.00;;
70365;SDS011;57787;48.216;12.396;2023-02-01T01:46:53;4.38;;;2.10;;
70365;SDS011;57787;48.216;12.396;2023-02-01T01:49:21;4.38;;;2.28;;
70365;SDS011;57787;48.216;12.396;2023-02-01T01:51:57;3.88;;;1.80;;
70365;SDS011;57787;48.216;12.396;2023-02-01T01:54:34;3.63;;;1.95;;
70365;SDS011;57787;48.216;12.396;2023-02-01T01:57:19;4.05;;;2.15;;
70365;SDS011;57787;48.216;12.396;2023-02-01T02:02:28;4.18;;;1.92;;
70365;SDS011;57787;48.216;12.396;2023-02-01T02:04:57;2.92;;;1.70;;
70365;SDS011;57787;48.216;12.396;2023-02-01T02:07:28;4.18;;;1.92;;
70365;SDS011;57787;48.216;12.396;2023-02-01T02:09:59;4.68;;;2.50;;
70365;SDS011;57787;48.216;12.396;2023-02-01T02:12:29;4.60;;;2.22;;
70365;SDS011;57787;48.216;12.396;2023-02-01T02:14:56;4.78;;;2.22;;
70365;SDS011;57787;48.216;12.396;2023-02-01T02:28:19;5.85;;;2.50;;
70365;SDS011;57787;48.216;12.396;2023-02-01T02:34:40;4.53;;;2.70;;
70365;SDS011;57787;48.216;12.396;2023-02-01T02:37:26;4.40;;;3.10;;
70365;SDS011;57787;48.216;12.396;2023-02-01T02:40:23;5.55;;;2.60;;
70365;SDS011;57787;48.216;12.396;2023-02-01T02:49:20;4.47;;;2.60;;
70365;SDS011;57787;48.216;12.396;2023-02-01T02:52:12;5.75;;;2.92;;
70365;SDS011;57787;48.216;12.396;2023-02-01T02:55:02;4.85;;;2.70;;
70365;SDS011;57787;48.216;12.396;2023-02-01T02:57:37;5.03;;;2.72;;
70365;SDS011;57787;48.216;12.396;2023-02-01T03:00:30;5.75;;;3.30;;
70365;SDS011;57787;48.216;12.396;2023-02-01T03:03:19;3.80;;;2.45;;
70365;SDS011;57787;48.216;12.396;2023-02-01T03:06:10;6.40;;;3.00;;
70365;SDS011;57787;48.216;12.396;2023-02-01T03:08:44;5.35;;;3.13;;
70365;SDS011;57787;48.216;12.396;2023-02-01T03:11:13;4.95;;;3.00;;
70365;SDS011;57787;48.216;12.396;2023-02-01T03:13:52;5.32;;;2.80;;
70365;SDS011;57787;48.216;12.396;2023-02-01T03:16:27;4.88;;;3.05;;
70365;SDS011;57787;48.216;12.396;2023-02-01T03:19:15;4.28;;;2.40;;
70365;SDS011;57787;48.216;12.396;2023-02-01T03:21:52;7.45;;;3.35;;
70365;SDS011;57787;48.216;12.396;2023-02-01T03:24:43;5.80;;;3.50;;
70365;SDS011;57787;48.216;12.396;2023-02-01T03:27:21;7.55;;;3.72;;
70365;SDS011;57787;48.216;12.396;2023-02-01T03:32:38;6.68;;;3.10;;
70365;SDS011;57787;48.216;12.396;2023-02-01T03:35:33;4.90;;;2.95;;
70365;SDS011;57787;48.216;12.396;2023-02-01T03:38:24;5.70;;;2.70;;
70365;SDS011;57787;48.216;12.396;2023-02-01T03:44:29;4.80;;;2.92;;
70365;SDS011;57787;48.216;12.396;2023-02-01T03:46:57;5.32;;;2.95;;
70365;SDS011;57787;48.216;12.396;2023-02-01T03:49:43;4.60;;;2.83;;
70365;SDS011;57787;48.216;12.396;2023-02-01T03:52:22;5.10;;;3.25;;
70365;SDS011;57787;48.216;12.396;2023-02-01T03:55:08;8.45;;;3.63;;
70365;SDS011;57787;48.216;12.396;2023-02-01T03:57:46;6.22;;;3.63;;
70365;SDS011;57787;48.216;12.396;2023-02-01T04:00:21;4.57;;;3.13;;
70365;SDS011;57787;48.216;12.396;2023-02-01T04:02:51;7.65;;;2.92;;
70365;SDS011;57787;48.216;12.396;2023-02-01T04:05:19;5.35;;;2.80;;
70365;SDS011;57787;48.216;12.396;2023-02-01T04:07:48;5.53;;;3.30;;
70365;SDS011;57787;48.216;12.396;2023-02-01T04:12:45;5.93;;;3.40;;
70365;SDS011;57787;48.216;12.396;2023-02-01T04:17:41;5.07;;;3.10;;
70365;SDS011;57787;48.216;12.396;2023-02-01T04:20:08;4.00;;;2.58;;
70365;SDS011;57787;48.216;12.396;2023-02-01T04:22:36;5.40;;;3.08;;
70365;SDS011;57787;48.216;12.396;2023-02-01T04:25:04;8.75;;;2.95;;
70365;SDS011;57787;48.216;12.396;2023-02-01T04:27:32;5.20;;;3.28;;
70365;SDS011;57787;48.216;12.396;2023-02-01T04:30:00;5.22;;;2.85;;
70365;SDS011;57787;48.216;12.396;2023-02-01T04:32:28;5.15;;;2.75;;
70365;SDS011;57787;48.216;12.396;2023-02-01T04:34:58;8.35;;;2.88;;
70365;SDS011;57787;48.216;12.396;2023-02-01T04:37:25;3.40;;;2.38;;
70365;SDS011;57787;48.216;12.396;2023-02-01T04:42:20;5.50;;;2.60;;
70365;SDS011;57787;48.216;12.396;2023-02-01T04:44:48;5.13;;;2.25;;
70365;SDS011;57787;48.216;12.396;2023-02-01T04:47:16;4.40;;;2.75;;
70365;SDS011;57787;48.216;12.396;2023-02-01T04:49:44;26.67;;;8.45;;
70365;SDS011;57787;48.216;12.396;2023-02-01T04:52:11;18.92;;;7.38;;
70365;SDS011;57787;48.216;12.396;2023-02-01T04:54:39;7.38;;;4.60;;
70365;SDS011;57787;48.216;12.396;2023-02-01T04:57:06;17.63;;;10.73;;
70365;SDS011;57787;48.216;12.396;2023-02-01T04:59:33;23.40;;;13.35;;
70365;SDS011;57787;48.216;12.396;2023-02-01T05:02:01;39.00;;;21.35;;
70365;SDS011;57787;48.216;12.396;2023-02-01T05:04:29;32.83;;;20.15;;
70365;SDS011;57787;48.216;12.396;2023-02-01T05:06:56;17.13;;;10.85;;
70365;SDS011;57787;48.216;12.396;2023-02-01T05:09:24;10.98;;;7.40;;
70365;SDS011;57787;48.216;12.396;2023-02-01T05:11:51;17.92;;;11.57;;
70365;SDS011;57787;48.216;12.396;2023-02-01T05:14:38;18.85;;;12.57;;
70365;SDS011;57787;48.216;12.396;2023-02-01T05:17:05;9.05;;;6.00;;
70365;SDS011;57787;48.216;12.396;2023-02-01T05:19:32;8.43;;;4.60;;
70365;SDS011;57787;48.216;12.396;2023-02-01T05:22:01;9.00;;;4.45;;
70365;SDS011;57787;48.216;12.396;2023-02-01T05:24:28;6.35;;;3.70;;
70365;SDS011;57787;48.216;12.396;2023-02-01T05:26:56;4.25;;;2.47;;
70365;SDS011;57787;48.216;12.396;2023-02-01T05:31:51;4.82;;;2.33;;
70365;SDS011;57787;48.216;12.396;2023-02-01T05:36:46;4.60;;;2.45;;
70365;SDS011;57787;48.216;12.396;2023-02-01T05:39:14;4.30;;;2.55;;
70365;SDS011;57787;48.216;12.396;2023-02-01T05:44:09;3.92;;;2.25;;
70365;SDS011;57787;48.216;12.396;2023-02-01T05:46:37;4.10;;;2.53;;
70365;SDS011;57787;48.216;12.396;2023-02-01T05:49:06;4.70;;;2.20;;
70365;SDS011;57787;48.216;12.396;2023-02-01T05:51:34;6.82;;;3.95;;
70365;SDS011;57787;48.216;12.396;2023-02-01T05:54:01;5.05;;;2.95;;
70365;SDS011;57787;48.216;12.396;2023-02-01T05:56:29;3.38;;;2.88;;
70365;SDS011;57787;48.216;12.396;2023-02-01T05:58:57;5.20;;;3.55;;
70365;SDS011;57787;48.216;12.396;2023-02-01T06:01:24;4.95;;;2.58;;
70365;SDS011;57787;48.216;12.396;2023-02-01T06:03:52;4.40;;;2.50;;
70365;SDS011;57787;48.216;12.396;2023-02-01T06:06:19;3.88;;;2.42;;
70365;SDS011;57787;48.216;12.396;2023-02-01T06:08:47;4.43;;;2.80;;
70365;SDS011;57787;48.216;12.396;2023-02-01T06:11:15;7.10;;;2.92;;
70365;SDS011;57787;48.216;12.396;2023-02-01T06:13:58;3.75;;;2.17;;
70365;SDS011;57787;48.216;12.396;2023-02-01T06:16:26;4.93;;;2.78;;
70365;SDS011;57787;48.216;12.396;2023-02-01T06:18:54;5.15;;;2.63;;
70365;SDS011;57787;48.216;12.396;2023-02-01T06:21:21;4.30;;;2.38;;
70365;SDS011;57787;48.216;12.396;2023-02-01T06:23:52;10.73;;;6.07;;
70365;SDS011;57787;48.216;12.396;2023-02-01T06:26:20;17.90;;;7.47;;
70365;SDS011;57787;48.216;12.396;2023-02-01T06:31:18;9.15;;;4.22;;
70365;SDS011;57787;48.216;12.396;2023-02-01T06:33:46;6.68;;;3.50;;
70365;SDS011;57787;48.216;12.396;2023-02-01T06:36:14;7.53;;;3.88;;
70365;SDS011;57787;48.216;12.396;2023-02-01T06:38:45;6.95;;;4.53;;
70365;SDS011;57787;48.216;12.396;2023-02-01T06:41:14;6.13;;;3.60;;
70365;SDS011;57787;48.216;12.396;2023-02-01T06:43:41;8.98;;;4.00;;
70365;SDS011;57787;48.216;12.396;2023-02-01T06:46:13;5.68;;;3.08;;
70365;SDS011;57787;48.216;12.396;2023-02-01T06:48:42;8.23;;;3.63;;
70365;SDS011;57787;48.216;12.396;2023-02-01T06:51:20;5.38;;;3.28;;
70365;SDS011;57787;48.216;12.396;2023-02-01T06:53:49;5.18;;;3.15;;
70365;SDS011;57787;48.216;12.396;2023-02-01T06:56:18;6.55;;;3.00;;
70365;SDS011;57787;48.216;12.396;2023-02-01T06:58:48;4.93;;;3.17;;
70365;SDS011;57787;48.216;12.396;2023-02-01T07:01:17;7.68;;;2.90;;
70365;SDS011;57787;48.216;12.396;2023-02-01T07:03:48;7.20;;;2.85;;
70365;SDS011;57787;48.216;12.396;2023-02-01T07:06:18;5.28;;;2.70;;
70365;SDS011;57787;48.216;12.396;2023-02-01T07:08:47;5.10;;;2.33;;
70365;SDS011;57787;48.216;12.396;2023-02-01T07:11:15;7.28;;;3.15;;
70365;SDS011;57787;48.216;12.396;2023-02-01T07:13:49;4.85;;;2.90;;
70365;SDS011;57787;48.216;12.396;2023-02-01T07:18:46;4.55;;;2.38;;
70365;SDS011;57787;48.216;12.396;2023-02-01T07:21:17;4.00;;;2.60;;
70365;SDS011;57787;48.216;12.396;2023-02-01T07:23:47;3.42;;;2.47;;
70365;SDS011;57787;48.216;12.396;2023-02-01T07:26:15;5.95;;;3.00;;
70365;SDS011;57787;48.216;12.396;2023-02-01T07:28:43;4.13;;;2.60;;
70365;SDS011;57787;48.216;12.396;2023-02-01T07:31:15;3.92;;;2.30;;
70365;SDS011;57787;48.216;12.396;2023-02-01T07:33:48;4.35;;;2.10;;
70365;SDS011;57787;48.216;12.396;2023-02-01T07:36:20;6.22;;;2.55;;
70365;SDS011;57787;48.216;12.396;2023-02-01T07:38:48;3.53;;;2.22;;
70365;SDS011;57787;48.216;12.396;2023-02-01T07:41:16;5.00;;;2.53;;
70365;SDS011;57787;48.216;12.396;2023-02-01T07:43:44;4.82;;;2.58;;
70365;SDS011;57787;48.216;12.396;2023-02-01T07:46:15;7.50;;;2.40;;
70365;SDS011;57787;48.216;12.396;2023-02-01T07:48:43;3.67;;;2.35;;
70365;SDS011;57787;48.216;12.396;2023-02-01T07:51:12;4.25;;;2.38;;
70365;SDS011;57787;48.216;12.396;2023-02-01T07:53:40;5.03;;;1.80;;
70365;SDS011;57787;48.216;12.396;2023-02-01T07:56:10;3.15;;;2.00;;
70365;SDS011;57787;48.216;12.396;2023-02-01T07:58:40;4.45;;;2.22;;
70365;SDS011;57787;48.216;12.396;2023-02-01T08:03:48;5.20;;;2.17;;
70365;SDS011;57787;48.216;12.396;2023-02-01T08:06:17;4.22;;;2.20;;
70365;SDS011;57787;48.216;12.396;2023-02-01T08:08:47;2.92;;;1.80;;
70365;SDS011;57787;48.216;12.396;2023-02-01T08:11:16;4.68;;;1.85;;
70365;SDS011;57787;48.216;12.396;2023-02-01T08:13:45;2.90;;;1.77;;
70365;SDS011;57787;48.216;12.396;2023-02-01T08:16:13;3.53;;;1.80;;
70365;SDS011;57787;48.216;12.396;2023-02-01T08:18:43;5.00;;;1.73;;
70365;SDS011;57787;48.216;12.396;2023-02-01T08:21:12;2.72;;;1.80;;
70365;SDS011;57787;48.216;12.396;2023-02-01T08:23:42;4.38;;;1.90;;
70365;SDS011;57787;48.216;12.396;2023-02-01T08:28:50;5.55;;;1.90;;
70365;SDS011;57787;48.216;12.396;2023-02-01T08:31:23;3.00;;;1.77;;
70365;SDS011;57787;48.216;12.396;2023-02-01T08:33:56;3.35;;;1.83;;
70365;SDS011;57787;48.216;12.396;2023-02-01T08:36:27;3.45;;;1.50;;
70365;SDS011;57787;48.216;12.396;2023-02-01T08:38:56;4.22;;;1.77;;
70365;SDS011;57787;48.216;12.396;2023-02-01T08:41:25;4.07;;;1.88;;
70365;SDS011;57787;48.216;12.396;2023-02-01T08:43:54;3.22;;;1.77;;
70365;SDS011;57787;48.216;12.396;2023-02-01T08:46:22;4.38;;;2.20;;
70365;SDS011;57787;48.216;12.396;2023-02-01T08:48:51;5.80;;;2.50;;
70365;SDS011;57787;48.216;12.396;2023-02-01T08:51:20;10.70;;;4.10;;
70365;SDS011;57787;48.216;12.396;2023-02-01T08:53:49;16.48;;;5.70;;
70365;SDS011;57787;48.216;12.396;2023-02-01T08:56:20;8.95;;;4.03;;
70365;SDS011;57787;48.216;12.396;2023-02-01T08:58:50;10.60;;;4.35;;
70365;SDS011;57787;48.216;12.396;2023-02-01T09:01:18;17.05;;;5.88;;
70365;SDS011;57787;48.216;12.396;2023-02-01T09:03:47;9.00;;;3.42;;
70365;SDS011;57787;48.216;12.396;2023-02-01T09:06:15;3.15;;;2.10;;
70365;SDS011;57787;48.216;12.396;2023-02-01T09:08:44;3.55;;;2.03;;
70365;SDS011;57787;48.216;12.396;2023-02-01T09:11:15;3.28;;;2.05;;
70365;SDS011;57787;48.216;12.396;2023-02-01T09:13:46;5.03;;;1.80;;
70365;SDS011;57787;48.216;12.396;2023-02-01T09:16:14;3.05;;;1.50;;
70365;SDS011;57787;48.216;12.396;2023-02-01T09:18:43;2.88;;;1.50;;
70365;SDS011;57787;48.216;12.396;2023-02-01T09:21:27;1.63;;;1.15;;
70365;SDS011;57787;48.216;12.396;2023-02-01T09:23:56;2.80;;;1.73;;
70365;SDS011;57787;48.216;12.396;2023-02-01T09:26:24;5.00;;;1.70;;
70365;SDS011;57787;48.216;12.396;2023-02-01T09:28:59;4.65;;;2.28;;
70365;SDS011;57787;48.216;12.396;2023-02-01T09:31:28;4.22;;;1.75;;
70365;SDS011;57787;48.216;12.396;2023-02-01T09:33:56;3.47;;;2.10;;
70365;SDS011;57787;48.216;12.396;2023-02-01T09:36:24;1.88;;;1.35;;
70365;SDS011;57787;48.216;12.396;2023-02-01T09:38:52;2.25;;;1.45;;
70365;SDS011;57787;48.216;12.396;2023-02-01T09:41:29;3.63;;;1.40;;
70365;SDS011;57787;48.216;12.396;2023-02-01T09:44:27;3.53;;;1.40;;
70365;SDS011;57787;48.216;12.396;2023-02-01T09:47:11;4.82;;;1.65;;
70365;SDS011;57787;48.216;12.396;2023-02-01T09:49:50;3.80;;;1.38;;
70365;SDS011;57787;48.216;12.396;2023-02-01T09:52:27;3.20;;;1.30;;
70365;SDS011;57787;48.216;12.396;2023-02-01T09:55:15;3.88;;;1.40;;
70365;SDS011;57787;48.216;12.396;2023-02-01T09:58:07;1.60;;;1.23;;
70365;SDS011;57787;48.216;12.396;2023-02-01T10:00:41;2.05;;;1.25;;
70365;SDS011;57787;48.216;12.396;2023-02-01T10:03:20;2.83;;;1.40;;
70365;SDS011;57787;48.216;12.396;2023-02-01T10:11:58;2.50;;;1.38;;
70365;SDS011;57787;48.216;12.396;2023-02-01T10:14:51;1.60;;;1.00;;
70365;SDS011;57787;48.216;12.396;2023-02-01T10:26:02;3.35;;;1.10;;
70365;SDS011;57787;48.216;12.396;2023-02-01T10:28:39;2.63;;;0.95;;
70365;SDS011;57787;48.216;12.396;2023-02-01T10:31:12;2.08;;;1.30;;
70365;SDS011;57787;48.216;12.396;2023-02-01T10:33:42;3.35;;;1.10;;
70365;SDS011;57787;48.216;12.396;2023-02-01T10:39:02;2.25;;;1.33;;
70365;SDS011;57787;48.216;12.396;2023-02-01T10:41:33;4.13;;;1.60;;
70365;SDS011;57787;48.216;12.396;2023-02-01T10:44:03;4.70;;;1.48;;
70365;SDS011;57787;48.216;12.396;2023-02-01T10:46:40;2.40;;;1.10;;
70365;SDS011;57787;48.216;12.396;2023-02-01T10:49:12;4.05;;;1.30;;
70365;SDS011;57787;48.216;12.396;2023-02-01T10:54:35;3.42;;;1.40;;
70365;SDS011;57787;48.216;12.396;2023-02-01T10:57:19;1.10;;;1.00;;
70365;SDS011;57787;48.216;12.396;2023-02-01T10:59:52;2.15;;;1.30;;
70365;SDS011;57787;48.216;12.396;2023-02-01T11:05:17;2.97;;;1.48;;
70365;SDS011;57787;48.216;12.396;2023-02-01T11:07:46;2.35;;;1.20;;
70365;SDS011;57787;48.216;12.396;2023-02-01T11:10:34;2.13;;;1.23;;
70365;SDS011;57787;48.216;12.396;2023-02-01T11:13:18;2.60;;;1.30;;
70365;SDS011;57787;48.216;12.396;2023-02-01T11:15:47;3.35;;;1.45;;
70365;SDS011;57787;48.216;12.396;2023-02-01T11:18:28;5.22;;;1.40;;
70365;SDS011;57787;48.216;12.396;2023-02-01T11:20:58;2.10;;;1.10;;
70365;SDS011;57787;48.216;12.396;2023-02-01T11:23:27;3.83;;;1.52;;
70365;SDS011;57787;48.216;12.396;2023-02-01T11:26:01;2.60;;;1.70;;
70365;SDS011;57787;48.216;12.396;2023-02-01T11:28:37;1.30;;;1.00;;
70365;SDS011;57787;48.216;12.396;2023-02-01T11:31:08;3.13;;;1.50;;
70365;SDS011;57787;48.216;12.396;2023-02-01T11:33:41;1.98;;;1.13;;
70365;SDS011;57787;48.216;12.396;2023-02-01T11:36:19;5.13;;;0.93;;
70365;SDS011;57787;48.216;12.396;2023-02-01T11:38:53;5.40;;;1.45;;
70365;SDS011;57787;48.216;12.396;2023-02-01T11:41:42;3.33;;;1.27;;
70365;SDS011;57787;48.216;12.396;2023-02-01T11:44:32;2.33;;;1.00;;
70365;SDS011;57787;48.216;12.396;2023-02-01T11:47:22;3.35;;;1.30;;
70365;SDS011;57787;48.216;12.396;2023-02-01T11:49:55;2.55;;;1.58;;
70365;SDS011;57787;48.216;12.396;2023-02-01T11:58:00;5.55;;;1.58;;
70365;SDS011;57787;48.216;12.396;2023-02-01T12:00:55;3.63;;;1.25;;
70365;SDS011;57787;48.216;12.396;2023-02-01T12:03:48;3.28;;;1.20;;
70365;SDS011;57787;48.216;12.396;2023-02-01T12:06:24;3.45;;;1.13;;
70365;SDS011;57787;48.216;12.396;2023-02-01T12:17:49;6.38;;;1.30;;
70365;SDS011;57787;48.216;12.396;2023-02-01T12:23:18;3.67;;;1.40;;
70365;SDS011;57787;48.216;12.396;2023-02-01T12:26:35;3.85;;;1.48;;
70365;SDS011;57787;48.216;12.396;2023-02-01T12:37:26;4.07;;;2.20;;
70365;SDS011;57787;48.216;12.396;2023-02-01T12:40:27;2.58;;;1.75;;
70365;SDS011;57787;48.216;12.396;2023-02-01T12:48:34;3.30;;;1.60;;
70365;SDS011;57787;48.216;12.396;2023-02-01T12:51:10;2.97;;;1.63;;
70365;SDS011;57787;48.216;12.396;2023-02-01T12:57:04;3.38;;;1.40;;
70365;SDS011;57787;48.216;12.396;2023-02-01T12:59:35;5.22;;;1.90;;
70365;SDS011;57787;48.216;12.396;2023-02-01T13:07:21;3.08;;;1.40;;
70365;SDS011;57787;48.216;12.396;2023-02-01T13:09:59;2.40;;;1.77;;
70365;SDS011;57787;48.216;12.396;2023-02-01T13:12:53;2.25;;;1.63;;
70365;SDS011;57787;48.216;12.396;2023-02-01T13:15:28;5.90;;;1.73;;
70365;SDS011;57787;48.216;12.396;2023-02-01T13:18:01;4.00;;;1.83;;
70365;SDS011;57787;48.216;12.396;2023-02-01T13:20:34;4.10;;;1.50;;
70365;SDS011;57787;48.216;12.396;2023-02-01T13:23:16;3.72;;;1.42;;
70365;SDS011;57787;48.216;12.396;2023-02-01T13:25:57;10.35;;;1.63;;
70365;SDS011;57787;48.216;12.396;2023-02-01T13:28:31;7.15;;;1.80;;
70365;SDS011;57787;48.216;12.396;2023-02-01T13:31:31;4.28;;;1.73;;
70365;SDS011;57787;48.216;12.396;2023-02-01T13:36:43;4.45;;;1.80;;
70365;SDS011;57787;48.216;12.396;2023-02-01T13:47:44;3.83;;;1.58;;
70365;SDS011;57787;48.216;12.396;2023-02-01T13:52:44;4.43;;;1.38;;
70365;SDS011;57787;48.216;12.396;2023-02-01T13:57:47;6.15;;;1.80;;
70365;SDS011;57787;48.216;12.396;2023-02-01T14:08:15;4.65;;;1.63;;
70365;SDS011;57787;48.216;12.396;2023-02-01T14:11:04;4.63;;;1.63;;
70365;SDS011;57787;48.216;12.396;2023-02-01T14:39:58;6.22;;;1.60;;
70365;SDS011;57787;48.216;12.396;2023-02-01T14:50:43;5.95;;;1.40;;
70365;SDS011;57787;48.216;12.396;2023-02-01T14:53:16;3.22;;;1.55;;
70365;SDS011;57787;48.216;12.396;2023-02-01T14:55:59;4.00;;;1.23;;
70365;SDS011;57787;48.216;12.396;2023-02-01T14:58:41;2.78;;;1.42;;
70365;SDS011;57787;48.216;12.396;2023-02-01T15:04:03;4.30;;;1.65;;
70365;SDS011;57787;48.216;12.396;2023-02-01T15:06:41;5.45;;;2.08;;
70365;SDS011;57787;48.216;12.396;2023-02-01T15:14:42;3.45;;;2.03;;
70365;SDS011;57787;48.216;12.396;2023-02-01T15:17:20;4.00;;;1.50;;
70365;SDS011;57787;48.216;12.396;2023-02-01T15:22:22;2.65;;;1.92;;
70365;SDS011;57787;48.216;12.396;2023-02-01T15:24:55;2.75;;;1.60;;
70365;SDS011;57787;48.216;12.396;2023-02-01T15:27:27;3.00;;;1.70;;
70365;SDS011;57787;48.216;12.396;2023-02-01T15:30:06;4.38;;;1.80;;
70365;SDS011;57787;48.216;12.396;2023-02-01T15:32:36;5.93;;;2.42;;
70365;SDS011;57787;48.216;12.396;2023-02-01T15:35:30;6.07;;;1.77;;
70365;SDS011;57787;48.216;12.396;2023-02-01T15:40:56;4.30;;;2.33;;
70365;SDS011;57787;48.216;12.396;2023-02-01T15:43:31;9.35;;;4.18;;
70365;SDS011;57787;48.216;12.396;2023-02-01T15:46:07;6.45;;;2.30;;
70365;SDS011;57787;48.216;12.396;2023-02-01T15:48:49;4.90;;;1.95;;
70365;SDS011;57787;48.216;12.396;2023-02-01T15:51:24;4.63;;;1.35;;
70365;SDS011;57787;48.216;12.396;2023-02-01T15:53:59;7.93;;;1.67;;
70365;SDS011;57787;48.216;12.396;2023-02-01T15:56:36;5.13;;;1.50;;
70365;SDS011;57787;48.216;12.396;2023-02-01T15:59:12;3.83;;;1.52;;
70365;SDS011;57787;48.216;12.396;2023-02-01T16:01:46;3.53;;;1.27;;
70365;SDS011;57787;48.216;12.396;2023-02-01T16:04:25;6.15;;;1.42;;
70365;SDS011;57787;48.216;12.396;2023-02-01T16:07:02;5.80;;;1.95;;
70365;SDS011;57787;48.216;12.396;2023-02-01T16:09:39;10.40;;;3.78;;
70365;SDS011;57787;48.216;12.396;2023-02-01T16:15:01;10.50;;;2.65;;
70365;SDS011;57787;48.216;12.396;2023-02-01T16:17:31;14.85;;;5.10;;
70365;SDS011;57787;48.216;12.396;2023-02-01T16:19:59;11.70;;;3.97;;
70365;SDS011;57787;48.216;12.396;2023-02-01T16:22:28;7.72;;;2.20;;
70365;SDS011;57787;48.216;12.396;2023-02-01T16:24:55;3.80;;;1.67;;
70365;SDS011;57787;48.216;12.396;2023-02-01T16:27:23;7.60;;;2.40;;
70365;SDS011;57787;48.216;12.396;2023-02-01T16:29:51;10.57;;;5.90;;
70365;SDS011;57787;48.216;12.396;2023-02-01T16:32:23;8.15;;;2.50;;
70365;SDS011;57787;48.216;12.396;2023-02-01T16:34:53;5.82;;;2.20;;
70365;SDS011;57787;48.216;12.396;2023-02-01T16:37:23;6.68;;;2.45;;
70365;SDS011;57787;48.216;12.396;2023-02-01T16:39:54;4.45;;;1.38;;
70365;SDS011;57787;48.216;12.396;2023-02-01T16:42:24;5.85;;;2.08;;
70365;SDS011;57787;48.216;12.396;2023-02-01T16:44:52;5.28;;;1.50;;
70365;SDS011;57787;48.216;12.396;2023-02-01T16:47:20;6.22;;;1.90;;
70365;SDS011;57787;48.216;12.396;2023-02-01T16:49:50;6.40;;;2.08;;
70365;SDS011;57787;48.216;12.396;2023-02-01T16:52:20;5.00;;;1.83;;
70365;SDS011;57787;48.216;12.396;2023-02-01T16:54:50;9.73;;;4.13;;
70365;SDS011;57787;48.216;12.396;2023-02-01T16:57:18;3.97;;;1.52;;
70365;SDS011;57787;48.216;12.396;2023-02-01T16:59:50;5.72;;;2.47;;
70365;SDS011;57787;48.216;12.396;2023-02-01T17:02:19;7.20;;;2.42;;
70365;SDS011;57787;48.216;12.396;2023-02-01T17:04:48;7.55;;;1.92;;
70365;SDS011;57787;48.216;12.396;2023-02-01T17:07:16;6.30;;;2.00;;
70365;SDS011;57787;48.216;12.396;2023-02-01T17:09:46;6.78;;;1.90;;
70365;SDS011;57787;48.216;12.396;2023-02-01T17:12:25;7.43;;;2.67;;
70365;SDS011;57787;48.216;12.396;2023-02-01T17:14:57;4.40;;;2.03;;
70365;SDS011;57787;48.216;12.396;2023-02-01T17:17:29;8.18;;;2.45;;
70365;SDS011;57787;48.216;12.396;2023-02-01T17:22:33;4.28;;;1.90;;
70365;SDS011;57787;48.216;12.396;2023-02-01T17:25:01;6.45;;;2.20;;
70365;SDS011;57787;48.216;12.396;2023-02-01T17:27:33;3.78;;;2.45;;
70365;SDS011;57787;48.216;12.396;2023-02-01T17:30:01;5.55;;;2.00;;
70365;SDS011;57787;48.216;12.396;2023-02-01T17:32:31;5.70;;;1.73;;
70365;SDS011;57787;48.216;12.396;2023-02-01T17:37:29;9.27;;;2.20;;
70365;SDS011;57787;48.216;12.396;2023-02-01T17:39:59;4.68;;;1.55;;
70365;SDS011;57787;48.216;12.396;2023-02-01T17:42:29;5.13;;;1.40;;
70365;SDS011;57787;48.216;12.396;2023-02-01T17:44:59;5.82;;;1.73;;
70365;SDS011;57787;48.216;12.396;2023-02-01T17:47:29;7.13;;;1.40;;
70365;SDS011;57787;48.216;12.396;2023-02-01T17:50:02;6.90;;;1.50;;
70365;SDS011;57787;48.216;12.396;2023-02-01T17:52:30;7.28;;;1.80;;
70365;SDS011;57787;48.216;12.396;2023-02-01T17:57:25;7.00;;;3.00;;
70365;SDS011;57787;48.216;12.396;2023-02-01T17:59:55;5.63;;;1.67;;
70365;SDS011;57787;48.216;12.396;2023-02-01T18:02:23;10.55;;;2.90;;
70365;SDS011;57787;48.216;12.396;2023-02-01T18:04:51;9.02;;;2.47;;
70365;SDS011;57787;48.216;12.396;2023-02-01T18:07:18;6.05;;;1.70;;
70365;SDS011;57787;48.216;12.396;2023-02-01T18:09:46;5.20;;;1.45;;
70365;SDS011;57787;48.216;12.396;2023-02-01T18:12:19;7.65;;;1.67;;
70365;SDS011;57787;48.216;12.396;2023-02-01T18:14:51;4.80;;;1.73;;
70365;SDS011;57787;48.216;12.396;2023-02-01T18:19:47;20.70;;;6.05;;
70365;SDS011;57787;48.216;12.396;2023-02-01T18:22:16;11.77;;;3.10;;
70365;SDS011;57787;48.216;12.396;2023-02-01T18:24:45;5.88;;;1.90;;
70365;SDS011;57787;48.216;12.396;2023-02-01T18:27:13;4.72;;;1.60;;
70365;SDS011;57787;48.216;12.396;2023-02-01T18:32:09;15.02;;;5.00;;
70365;SDS011;57787;48.216;12.396;2023-02-01T18:34:37;16.77;;;6.30;;
70365;SDS011;57787;48.216;12.396;2023-02-01T18:37:05;15.38;;;5.53;;